createdAt,value
2018-06-12T03:33:57.637Z,380
2018-06-12T03:35:06.772Z,384
2018-06-12T03:36:15.908Z,368
2018-06-12T03:37:24.775Z,328
2018-06-12T03:38:33.635Z,304
2018-06-12T03:39:42.646Z,352
2018-06-12T03:40:51.792Z,340
2018-06-12T03:42:00.927Z,392
2018-06-12T03:43:10.067Z,400
2018-06-12T03:44:18.928Z,468
2018-06-12T03:45:27.787Z,572
2018-06-12T03:46:36.650Z,600
2018-06-12T03:47:45.512Z,620
2018-06-12T03:48:54.370Z,584
2018-06-12T03:50:03.231Z,564
2018-06-12T03:51:12.244Z,584
2018-06-12T03:52:21.108Z,652
2018-06-12T03:53:30.247Z,792
2018-06-12T03:54:39.106Z,892
2018-06-12T03:55:48.244Z,892
2018-06-12T03:56:57.154Z,916
2018-06-12T03:58:06.019Z,892
2018-06-12T03:59:14.878Z,948
2018-06-12T04:00:23.740Z,988
2018-06-12T04:01:32.894Z,1028
2018-06-12T04:02:41.754Z,1032
2018-06-12T04:03:50.616Z,1060
2018-06-12T04:04:59.479Z,1036
2018-06-12T04:06:08.619Z,1028
2018-06-12T04:07:17.486Z,1060
2018-06-12T04:08:26.698Z,1144
2018-06-12T04:09:35.837Z,1144
2018-06-12T04:10:44.700Z,1116
2018-06-12T04:11:53.563Z,1112
2018-06-12T04:13:02.422Z,1152
2018-06-12T04:14:11.383Z,1108
2018-06-12T04:15:20.801Z,1252
2018-06-12T04:16:29.666Z,1300
2018-06-12T04:17:38.810Z,1384
2018-06-12T04:18:47.945Z,1324
2018-06-12T04:19:57.364Z,1348
2018-06-12T04:21:06.510Z,1388
2018-06-12T04:22:15.648Z,1420
2018-06-12T04:23:24.509Z,1448
2018-06-12T04:24:33.373Z,1428
2018-06-12T04:25:42.390Z,1468
2018-06-12T04:26:51.250Z,1468
2018-06-12T04:28:00.117Z,1452
2018-06-12T04:29:09.529Z,1560
2018-06-12T04:30:18.388Z,1608
2018-06-12T04:31:27.347Z,1648
2018-06-12T04:32:36.208Z,1716
2018-06-12T04:33:45.071Z,1636
2018-06-12T04:34:53.931Z,1604
2018-06-12T04:36:02.792Z,1668
2018-06-12T04:37:11.701Z,1720
2018-06-12T04:38:20.562Z,1652
2018-06-12T04:39:29.425Z,1512
2018-06-12T04:40:38.285Z,1312
2018-06-12T04:41:47.148Z,1564
2018-06-12T04:42:56.012Z,1804
2018-06-12T04:44:04.870Z,2028
2018-06-12T04:45:13.729Z,2044
2018-06-12T04:46:22.589Z,2096
2018-06-12T04:47:31.451Z,2048
2018-06-12T04:48:40.312Z,2032
2018-06-12T04:49:49.175Z,2032
2018-06-12T04:50:58.035Z,1956
2018-06-12T04:52:06.902Z,1952
2018-06-12T04:53:16.318Z,2244
2018-06-12T04:54:25.282Z,2380
2018-06-12T04:55:34.144Z,2324
2018-06-12T04:56:43.007Z,2328
2018-06-12T04:57:51.869Z,2320
2018-06-12T04:59:00.732Z,2284
2018-06-12T05:00:09.592Z,2232
2018-06-12T05:01:18.455Z,2412
2018-06-12T05:02:27.320Z,2508
2018-06-12T05:03:36.189Z,2556
2018-06-12T05:04:45.664Z,2512
2018-06-12T05:05:54.528Z,2452
2018-06-12T05:07:03.670Z,2420
2018-06-12T05:08:12.531Z,2472
2018-06-12T05:09:21.671Z,2436
2018-06-12T05:10:30.573Z,2188
2018-06-12T05:11:39.394Z,2124
2018-06-12T05:12:48.289Z,2688
2018-06-12T05:13:57.121Z,2816
2018-06-12T05:15:06.259Z,2816
2018-06-12T05:16:15.120Z,2888
2018-06-12T05:17:23.980Z,3020
2018-06-12T05:18:33.123Z,3020
2018-06-12T05:19:42.098Z,3076
2018-06-12T05:20:51.309Z,3096
2018-06-12T05:22:00.171Z,3004
2018-06-12T05:23:09.033Z,2912
2018-06-12T05:24:18.178Z,2900
2018-06-12T05:25:27.070Z,3100
2018-06-12T05:26:36.181Z,3508
2018-06-12T05:27:45.042Z,3564
2018-06-12T05:28:53.906Z,3632
2018-06-12T05:30:02.792Z,3612
2018-06-12T05:31:12.124Z,3492
2018-06-12T05:32:21.086Z,3500
2018-06-12T05:33:30.270Z,3680
2018-06-12T05:34:39.143Z,3584
2018-06-12T05:35:48.007Z,3772
2018-06-12T05:36:57.319Z,3900
2018-06-12T05:38:06.179Z,3748
2018-06-12T05:39:15.049Z,3436
2018-06-12T05:40:24.472Z,3416
2018-06-12T05:41:33.333Z,3680
2018-06-12T05:42:42.472Z,3776
2018-06-12T05:43:51.333Z,3784
2018-06-12T05:45:00.193Z,3776
2018-06-12T05:46:09.061Z,3800
2018-06-12T05:47:17.927Z,3688
2018-06-12T05:48:26.837Z,3924
2018-06-12T05:49:35.976Z,4140
2018-06-12T05:50:44.838Z,4120
2018-06-12T05:51:53.707Z,4180
2018-06-12T05:53:02.902Z,3884
2018-06-12T05:54:11.867Z,3988
2018-06-12T05:55:20.738Z,3984
2018-06-12T05:56:30.052Z,3980
2018-06-12T05:57:39.194Z,3936
2018-06-12T05:58:48.055Z,4224
2018-06-12T05:59:56.971Z,4060
2018-06-12T06:01:06.121Z,4316
2018-06-12T06:02:14.982Z,4660
2018-06-12T06:03:23.846Z,4704
2018-06-12T06:04:32.710Z,4784
2018-06-12T06:05:41.923Z,4796
2018-06-12T06:06:50.784Z,4620
2018-06-12T06:07:59.650Z,4372
2018-06-12T06:09:08.513Z,4364
2018-06-12T06:10:17.376Z,4452
2018-06-12T06:11:26.242Z,4336
2018-06-12T06:12:35.379Z,4112
2018-06-12T06:13:44.244Z,3972
2018-06-12T06:14:53.155Z,3948
2018-06-12T06:16:02.016Z,4572
2018-06-12T06:17:12.032Z,5100
2018-06-12T06:18:21.165Z,5188
2018-06-12T06:19:30.032Z,4884
2018-06-12T06:20:39.172Z,3704
2018-06-12T06:21:48.031Z,3680
2018-06-12T06:22:56.997Z,3396
2018-06-12T06:24:06.137Z,3816
2018-06-12T06:25:15.277Z,3628
2018-06-12T06:26:24.691Z,3948
2018-06-12T06:27:33.556Z,4700
2018-06-12T06:28:42.417Z,5076
2018-06-12T06:29:51.332Z,5368
2018-06-12T06:31:00.472Z,5044
2018-06-12T06:32:09.610Z,4988
2018-06-12T06:33:18.757Z,5508
2018-06-12T06:34:27.996Z,5616
2018-06-12T06:35:36.860Z,5692
2018-06-12T06:36:45.723Z,5804
2018-06-12T06:37:54.689Z,6156
2018-06-12T06:39:03.833Z,6140
2018-06-12T06:40:13.324Z,5996
2018-06-12T06:41:22.184Z,5876
2018-06-12T06:42:31.323Z,5856
2018-06-12T06:43:40.183Z,6472
2018-06-12T06:44:49.047Z,6588
2018-06-12T06:45:58.338Z,6496
2018-06-12T06:47:07.756Z,6380
2018-06-12T06:48:16.893Z,6216
2018-06-12T06:49:25.754Z,6068
2018-06-12T06:50:34.622Z,5688
2018-06-12T06:51:44.384Z,5504
2018-06-12T06:52:53.249Z,5212
2018-06-12T06:54:02.389Z,4892
2018-06-12T06:55:11.814Z,4248
2018-06-12T06:56:20.674Z,3932
2018-06-12T06:57:29.888Z,4032
2018-06-12T06:58:38.749Z,4428
2018-06-12T06:59:47.616Z,4980
2018-06-12T07:00:56.757Z,5376
2018-06-12T07:02:05.616Z,5868
2018-06-12T07:03:14.627Z,6640
2018-06-12T07:04:23.490Z,7124
2018-06-12T07:05:32.633Z,6528
2018-06-12T07:06:41.775Z,6592
2018-06-12T07:07:50.638Z,6868
2018-06-12T07:08:59.613Z,6652
2018-06-12T07:10:08.472Z,6904
2018-06-12T07:11:17.337Z,6876
2018-06-12T07:12:26.213Z,7152
2018-06-12T07:13:35.072Z,6892
2018-06-12T07:14:44.234Z,6728
2018-06-12T07:15:53.372Z,6112
2018-06-12T07:17:02.234Z,6224
2018-06-12T07:18:11.377Z,7508
2018-06-12T07:19:20.518Z,7844
2018-06-12T07:20:29.534Z,7856
2018-06-12T07:21:38.677Z,8028
2018-06-12T07:22:47.541Z,7940
2018-06-12T07:23:56.682Z,7984
2018-06-12T07:25:05.539Z,7972
2018-06-12T07:26:14.451Z,7752
2018-06-12T07:27:23.603Z,7572
2018-06-12T07:28:32.749Z,7320
2018-06-12T07:29:41.612Z,6952
2018-06-12T07:30:50.473Z,6124
2018-06-12T07:31:59.436Z,7036
2018-06-12T07:33:08.301Z,7268
2018-06-12T07:34:17.162Z,7660
2018-06-12T07:35:26.021Z,7632
2018-06-12T07:36:34.884Z,7040
2018-06-12T07:37:44.175Z,6192
2018-06-12T07:38:53.328Z,5456
2018-06-12T07:40:02.477Z,5644
2018-06-12T07:41:11.336Z,6396
2018-06-12T07:42:20.479Z,7824
2018-06-12T07:43:29.410Z,9052
2018-06-12T07:44:38.254Z,9012
2018-06-12T07:45:47.116Z,7816
2018-06-12T07:46:55.979Z,6656
2018-06-12T07:48:04.841Z,4780
2018-06-12T07:49:13.854Z,3652
2018-06-12T07:50:22.718Z,3240
2018-06-12T07:51:31.860Z,3240
2018-06-12T07:52:40.722Z,2988
2018-06-12T07:53:49.586Z,2688
2018-06-12T07:54:59.149Z,3456
2018-06-12T07:56:08.280Z,4280
2018-06-12T07:57:17.143Z,5028
2018-06-12T07:58:26.005Z,5064
2018-06-12T07:59:34.872Z,5900
2018-06-12T08:00:44.111Z,7748
2018-06-12T08:01:52.975Z,8564
2018-06-12T08:03:01.840Z,8396
2018-06-12T08:04:10.700Z,8416
2018-06-12T08:05:19.572Z,8396
2018-06-12T08:06:29.349Z,8924
2018-06-12T08:07:38.211Z,8624
2018-06-12T08:08:47.074Z,8176
2018-06-12T08:09:55.937Z,7856
2018-06-12T08:11:04.802Z,6948
2018-06-12T08:12:13.815Z,6868
2018-06-12T08:13:22.678Z,7268
2018-06-12T08:14:31.538Z,8096
2018-06-12T08:15:40.676Z,8608
2018-06-12T08:16:49.590Z,9056
2018-06-12T08:17:58.604Z,9672
2018-06-12T08:19:07.471Z,9692
2018-06-12T08:20:16.335Z,9916
2018-06-12T08:21:25.198Z,10144
2018-06-12T08:22:34.343Z,10316
2018-06-12T08:23:43.404Z,10120
2018-06-12T08:24:52.544Z,9512
2018-06-12T08:26:01.419Z,9220
2018-06-12T08:27:10.839Z,7704
2018-06-12T08:28:19.703Z,5908
2018-06-12T08:29:28.898Z,5832
2018-06-12T08:30:37.849Z,7216
2018-06-12T08:31:47.369Z,8508
2018-06-12T08:32:56.509Z,8588
2018-06-12T08:34:05.647Z,7636
2018-06-12T08:35:14.861Z,7168
2018-06-12T08:36:23.725Z,7344
2018-06-12T08:37:32.588Z,8160
2018-06-12T08:38:41.452Z,8204
2018-06-12T08:39:50.358Z,8116
2018-06-12T08:40:59.801Z,7000
2018-06-12T08:42:08.848Z,5380
2018-06-12T08:43:17.715Z,5556
2018-06-12T08:44:26.578Z,5868
2018-06-12T08:45:35.445Z,5068
2018-06-12T08:46:44.683Z,4244
2018-06-12T08:47:53.824Z,4952
2018-06-12T08:49:02.690Z,5856
2018-06-12T08:50:11.553Z,6992
2018-06-12T08:51:20.692Z,8092
2018-06-12T08:52:29.654Z,8220
2018-06-12T08:53:38.516Z,8660
2018-06-12T08:54:47.384Z,8112
2018-06-12T08:55:56.520Z,7716
2018-06-12T08:57:05.383Z,7220
2018-06-12T08:58:14.395Z,8236
2018-06-12T08:59:23.258Z,8452
2018-06-12T09:00:32.121Z,7868
2018-06-12T09:01:40.987Z,6272
2018-06-12T09:02:50.197Z,6140
2018-06-12T09:03:59.314Z,6800
2018-06-12T09:05:08.195Z,6796
2018-06-12T09:06:17.054Z,5812
2018-06-12T09:07:25.917Z,4704
2018-06-12T09:08:34.781Z,4984
2018-06-12T09:09:43.697Z,6816
2018-06-12T09:10:52.559Z,8920
2018-06-12T09:12:01.429Z,10580
2018-06-12T09:13:10.289Z,11624
2018-06-12T09:14:19.153Z,11716
2018-06-12T09:15:28.446Z,11216
2018-06-12T09:16:37.310Z,10772
2018-06-12T09:17:46.174Z,10468
2018-06-12T09:18:55.038Z,9604
2018-06-12T09:20:03.903Z,8020
2018-06-12T09:21:12.867Z,6048
2018-06-12T09:22:21.731Z,5536
2018-06-12T09:23:30.594Z,4572
2018-06-12T09:24:39.458Z,3940
2018-06-12T09:25:48.598Z,3628
2018-06-12T09:26:57.912Z,3432
2018-06-12T09:28:07.050Z,3256
2018-06-12T09:29:15.916Z,3040
2018-06-12T09:30:24.785Z,3320
2018-06-12T09:31:33.645Z,4132
2018-06-12T09:32:42.658Z,3512
2018-06-12T09:33:51.523Z,3008
2018-06-12T09:35:00.386Z,3080
2018-06-12T09:36:09.809Z,4036
2018-06-12T09:37:18.955Z,5156
2018-06-12T09:38:27.867Z,6092
2018-06-12T09:39:36.729Z,6920
2018-06-12T09:40:45.594Z,7508
2018-06-12T09:41:54.459Z,8216
2018-06-12T09:43:03.884Z,8608
2018-06-12T09:44:12.747Z,8288
2018-06-12T09:45:21.608Z,8184
2018-06-12T09:46:30.475Z,7596
2018-06-12T09:47:39.620Z,7000
2018-06-12T09:48:48.479Z,6716
2018-06-12T09:49:58.068Z,7368
2018-06-12T09:51:07.211Z,7656
2018-06-12T09:52:16.074Z,8612
2018-06-12T09:53:24.937Z,9004
2018-06-12T09:54:33.803Z,9608
2018-06-12T09:55:42.768Z,10428
2018-06-12T09:56:51.631Z,11468
2018-06-12T09:58:00.493Z,12640
2018-06-12T09:59:09.633Z,12684
2018-06-12T10:00:18.500Z,11868
2018-06-12T10:01:27.740Z,10404
2018-06-12T10:02:36.881Z,8508
2018-06-12T10:03:45.745Z,6700
2018-06-12T10:04:54.608Z,6412
2018-06-12T10:06:03.470Z,5448
2018-06-12T10:07:12.484Z,4096
2018-06-12T10:08:21.347Z,3432
2018-06-12T10:09:30.207Z,2952
2018-06-12T10:10:39.071Z,2984
2018-06-12T10:11:47.936Z,2920
2018-06-12T10:12:57.156Z,2560
2018-06-12T10:14:06.020Z,2464
2018-06-12T10:15:14.882Z,2404
2018-06-12T10:16:23.748Z,2272
2018-06-12T10:17:32.614Z,2488
2018-06-12T10:18:41.728Z,2976
2018-06-12T10:19:50.882Z,3452
2018-06-12T10:21:00.030Z,4596
2018-06-12T10:22:08.883Z,7212
2018-06-12T10:23:17.747Z,9304
2018-06-12T10:24:27.039Z,10292
2018-06-12T10:25:35.900Z,10176
2018-06-12T10:26:44.762Z,10840
2018-06-12T10:27:53.629Z,11020
2018-06-12T10:29:02.493Z,11552
2018-06-12T10:30:11.607Z,13872
2018-06-12T10:31:20.469Z,14692
2018-06-12T10:32:29.332Z,14188
2018-06-12T10:33:38.197Z,13096
2018-06-12T10:34:47.063Z,11724
2018-06-12T10:35:55.923Z,9952
2018-06-12T10:37:05.174Z,8012
2018-06-12T10:38:14.774Z,6188
2018-06-12T10:39:23.914Z,6032
2018-06-12T10:40:33.053Z,6352
2018-06-12T10:41:42.294Z,7300
2018-06-12T10:42:51.155Z,8364
2018-06-12T10:44:00.025Z,9892
2018-06-12T10:45:09.448Z,12604
2018-06-12T10:46:18.595Z,13432
2018-06-12T10:47:27.559Z,13336
2018-06-12T10:48:36.698Z,13464
2018-06-12T10:49:45.852Z,14572
2018-06-12T10:50:54.996Z,16228
2018-06-12T10:52:03.858Z,17056
2018-06-12T10:53:13.056Z,16288
2018-06-12T10:54:21.918Z,14932
2018-06-12T10:55:31.338Z,12512
2018-06-12T10:56:40.555Z,10168
2018-06-12T10:57:49.423Z,9292
2018-06-12T10:58:58.339Z,8228
2018-06-12T11:00:07.519Z,6936
2018-06-12T11:01:16.392Z,7000
2018-06-12T11:02:25.272Z,6840
2018-06-12T11:03:34.165Z,6104
2018-06-12T11:04:43.201Z,5568
2018-06-12T11:05:52.071Z,5400
2018-06-12T11:07:00.939Z,6068
2018-06-12T11:08:10.124Z,7632
2018-06-12T11:09:19.048Z,8976
2018-06-12T11:10:28.011Z,10764
2018-06-12T11:11:36.882Z,11844
2018-06-12T11:12:46.422Z,11616
2018-06-12T11:13:55.306Z,10380
2018-06-12T11:15:04.174Z,10520
2018-06-12T11:16:13.090Z,12516
2018-06-12T11:17:21.953Z,16252
2018-06-12T11:18:30.817Z,19360
2018-06-12T11:19:39.685Z,17856
2018-06-12T11:20:48.891Z,14964
2018-06-12T11:21:57.941Z,13080
2018-06-12T11:23:06.808Z,13088
2018-06-12T11:24:15.951Z,11148
2018-06-12T11:25:24.817Z,9636
2018-06-12T11:26:33.692Z,7476
2018-06-12T11:27:42.556Z,6568
2018-06-12T11:28:51.430Z,5684
2018-06-12T11:30:00.297Z,5636
2018-06-12T11:31:09.168Z,7820
2018-06-12T11:32:18.031Z,11348
2018-06-12T11:33:26.996Z,12224
2018-06-12T11:34:35.861Z,13432
2018-06-12T11:35:45.000Z,14404
2018-06-12T11:36:53.864Z,17792
2018-06-12T11:38:02.735Z,17312
2018-06-12T11:39:11.700Z,11792
2018-06-12T11:40:20.566Z,8808
2018-06-12T11:41:29.430Z,10076
2018-06-12T11:42:38.573Z,8820
2018-06-12T11:43:47.516Z,7120
2018-06-12T11:44:56.631Z,6800
2018-06-12T11:46:05.501Z,7540
2018-06-12T11:47:14.655Z,6492
2018-06-12T11:48:23.799Z,5488
2018-06-12T11:49:32.694Z,5132
2018-06-12T11:50:41.911Z,4760
2018-06-12T11:51:50.781Z,4984
2018-06-12T11:52:59.647Z,5960
2018-06-12T11:54:08.515Z,7284
2018-06-12T11:55:17.380Z,7060
2018-06-12T11:56:26.296Z,5716
2018-06-12T11:57:35.714Z,4536
2018-06-12T11:58:44.577Z,4904
2018-06-12T11:59:53.721Z,6728
2018-06-12T12:01:02.590Z,6988
2018-06-12T12:02:11.813Z,5428
2018-06-12T12:03:20.953Z,5820
2018-06-12T12:04:29.823Z,8296
2018-06-12T12:05:39.249Z,13976
2018-06-12T12:06:48.115Z,17536
2018-06-12T12:07:57.131Z,16352
2018-06-12T12:09:06.000Z,17088
2018-06-12T12:10:14.866Z,31840
2018-06-12T12:11:23.729Z,21568
2018-06-12T12:12:32.872Z,22880
2018-06-12T12:13:42.016Z,26112
2018-06-12T12:14:50.983Z,20224
2018-06-12T12:16:00.126Z,38464
2018-06-12T12:17:08.996Z,21856
2018-06-12T12:18:18.144Z,15720
2018-06-12T12:19:27.437Z,9228
2018-06-12T12:20:36.307Z,11348
2018-06-12T12:21:45.170Z,14688
2018-06-12T12:22:54.035Z,19008
2018-06-12T12:24:02.901Z,23616
2018-06-12T12:25:11.918Z,44256
2018-06-12T12:26:20.783Z,50784
2018-06-12T12:27:29.931Z,36928
2018-06-12T12:28:39.127Z,24896
2018-06-12T12:29:47.961Z,20384
2018-06-12T12:30:57.378Z,20672
2018-06-12T12:32:06.244Z,33984
2018-06-12T12:33:15.388Z,8644
2018-06-12T12:34:24.254Z,6712
2018-06-12T12:35:33.124Z,8016
2018-06-12T12:36:41.990Z,6916
2018-06-12T12:37:50.856Z,6632
2018-06-12T12:38:59.720Z,5428
2018-06-12T12:40:08.588Z,4272
2018-06-12T12:41:17.457Z,4016
2018-06-12T12:42:26.649Z,4228
2018-06-12T12:43:35.570Z,4436
2018-06-12T12:44:44.378Z,4708
2018-06-12T12:45:53.244Z,4476
2018-06-12T12:47:02.137Z,3400
2018-06-12T12:48:11.734Z,3516
2018-06-12T12:49:20.879Z,5488
2018-06-12T12:50:29.746Z,5900
2018-06-12T12:51:38.614Z,5272
2018-06-12T12:52:47.482Z,5348
2018-06-12T12:53:56.446Z,5924
2018-06-12T12:55:05.592Z,5024
2018-06-12T12:56:14.738Z,3880
2018-06-12T12:57:23.882Z,3992
2018-06-12T12:58:32.743Z,5112
2018-06-12T12:59:41.709Z,8188
2018-06-12T13:00:50.574Z,11752
2018-06-12T13:01:59.719Z,14968
2018-06-12T13:03:08.582Z,15076
2018-06-12T13:04:17.724Z,10832
2018-06-12T13:05:26.738Z,9480
2018-06-12T13:06:35.606Z,8528
2018-06-12T13:07:44.478Z,7792
2018-06-12T13:08:53.617Z,7748
2018-06-12T13:10:02.485Z,6580
2018-06-12T13:11:11.507Z,4908
2018-06-12T13:12:20.396Z,4320
2018-06-12T13:13:29.233Z,5052
2018-06-12T13:14:38.378Z,7024
2018-06-12T13:15:47.523Z,9440
2018-06-12T13:16:56.639Z,12204
2018-06-12T13:18:05.783Z,14504
2018-06-12T13:19:14.649Z,14936
2018-06-12T13:20:23.928Z,11508
2018-06-12T13:21:33.075Z,11116
2018-06-12T13:22:41.938Z,9560
2018-06-12T13:23:51.082Z,7056
2018-06-12T13:25:00.221Z,6984
2018-06-12T13:26:09.087Z,6580
2018-06-12T13:27:17.951Z,8264
2018-06-12T13:28:26.917Z,9536
2018-06-12T13:29:36.056Z,11536
2018-06-12T13:30:44.920Z,12904
2018-06-12T13:31:53.837Z,14376
2018-06-12T13:33:02.708Z,11832
2018-06-12T13:34:11.726Z,12912
2018-06-12T13:35:20.589Z,15740
2018-06-12T13:36:29.451Z,15832
2018-06-12T13:37:38.317Z,17600
2018-06-12T13:38:47.183Z,20832
2018-06-12T13:39:56.046Z,12824
2018-06-12T13:41:05.294Z,10552
2018-06-12T13:42:14.111Z,8112
2018-06-12T13:43:22.976Z,5296
2018-06-12T13:44:31.842Z,3804
2018-06-12T13:45:41.165Z,4652
2018-06-12T13:46:50.033Z,7300
2018-06-12T13:47:58.898Z,11232
2018-06-12T13:49:07.770Z,14376
2018-06-12T13:50:16.630Z,13364
2018-06-12T13:51:25.496Z,11780
2018-06-12T13:52:34.363Z,11832
2018-06-12T13:53:43.226Z,13024
2018-06-12T13:54:52.488Z,12736
2018-06-12T13:56:01.310Z,12080
2018-06-12T13:57:10.671Z,7308
2018-06-12T13:58:19.545Z,4608
2018-06-12T13:59:28.417Z,4728
2018-06-12T14:00:37.294Z,5852
2018-06-12T14:01:46.721Z,8504
2018-06-12T14:02:55.751Z,11740
2018-06-12T14:04:04.622Z,15052
2018-06-12T14:05:13.493Z,19264
2018-06-12T14:06:22.358Z,22112
2018-06-12T14:07:31.224Z,19424
2018-06-12T14:08:40.190Z,20128
2018-06-12T14:09:49.056Z,18016
2018-06-12T14:10:58.199Z,19328
2018-06-12T14:12:07.067Z,18336
2018-06-12T14:13:16.564Z,16480
2018-06-12T14:14:25.422Z,15148
2018-06-12T14:15:34.287Z,11816
2018-06-12T14:16:43.427Z,10216
2018-06-12T14:17:52.300Z,9404
2018-06-12T14:19:01.444Z,11948
2018-06-12T14:20:10.357Z,12004
2018-06-12T14:21:19.221Z,9560
2018-06-12T14:22:28.088Z,9188
2018-06-12T14:23:37.234Z,8696
2018-06-12T14:24:46.099Z,8380
2018-06-12T14:25:55.165Z,10040
2018-06-12T14:27:04.331Z,12324
2018-06-12T14:28:13.183Z,15248
2018-06-12T14:29:22.035Z,27552
2018-06-12T14:30:30.903Z,16800
2018-06-12T14:31:39.917Z,12572
2018-06-12T14:32:48.857Z,12844
2018-06-12T14:33:57.801Z,17504
2018-06-12T14:35:06.596Z,15740
2018-06-12T14:36:15.662Z,19360
2018-06-12T14:37:24.902Z,33472
2018-06-12T14:38:33.766Z,29344
2018-06-12T14:39:42.630Z,30080
2018-06-12T14:40:51.826Z,26144
2018-06-12T14:42:00.693Z,19872
2018-06-12T14:43:09.659Z,17024
2018-06-12T14:44:18.806Z,14452
2018-06-12T14:45:27.676Z,11756
2018-06-12T14:46:36.569Z,10416
2018-06-12T14:47:45.708Z,8680
2018-06-12T14:48:54.951Z,8484
2018-06-12T14:50:03.818Z,9384
2018-06-12T14:51:12.688Z,11708
2018-06-12T14:52:21.549Z,15096
2018-06-12T14:53:30.414Z,14184
2018-06-12T14:54:39.618Z,14320
2018-06-12T14:55:48.485Z,18240
2018-06-12T14:56:57.351Z,17504
2018-06-12T14:58:06.494Z,14536
2018-06-12T14:59:15.752Z,12384
2018-06-12T15:00:24.998Z,10816
2018-06-12T15:01:33.866Z,11584
2018-06-12T15:02:42.731Z,11008
2018-06-12T15:03:51.870Z,9612
2018-06-12T15:05:00.735Z,6656
2018-06-12T15:06:09.703Z,4580
2018-06-12T15:07:18.566Z,4860
2018-06-12T15:08:27.428Z,6204
2018-06-12T15:09:36.296Z,7328
2018-06-12T15:10:45.163Z,7684
2018-06-12T15:11:54.284Z,6428
2018-06-12T15:13:03.151Z,5716
2018-06-12T15:14:12.015Z,5204
2018-06-12T15:15:20.878Z,4712
2018-06-12T15:16:30.019Z,4480
2018-06-12T15:17:39.214Z,3888
2018-06-12T15:18:48.355Z,3316
2018-06-12T15:19:57.496Z,3696
2018-06-12T15:21:06.362Z,3804
2018-06-12T15:22:15.227Z,3556
2018-06-12T15:23:24.418Z,3448
2018-06-12T15:24:33.283Z,3296
2018-06-12T15:25:42.431Z,3320
2018-06-12T15:26:51.287Z,2868
2018-06-12T15:28:00.151Z,2676
2018-06-12T15:29:09.264Z,2972
2018-06-12T15:30:18.408Z,3084
2018-06-12T15:31:27.280Z,3164
2018-06-12T15:32:36.438Z,3216
2018-06-12T15:33:45.303Z,3360
2018-06-12T15:34:54.331Z,3076
2018-06-12T15:36:03.205Z,2768
2018-06-12T15:37:12.073Z,2672
2018-06-12T15:38:20.937Z,2692
2018-06-12T15:39:30.082Z,2276
2018-06-12T15:40:39.197Z,2676
2018-06-12T15:41:48.657Z,2696
2018-06-12T15:42:57.542Z,2888
2018-06-12T15:44:06.683Z,3516
2018-06-12T15:45:15.550Z,3420
2018-06-12T15:46:24.413Z,3324
2018-06-12T15:47:33.276Z,3720
2018-06-12T15:48:42.138Z,3468
2018-06-12T15:49:51.002Z,2988
2018-06-12T15:50:59.967Z,2528
2018-06-12T15:52:09.109Z,2264
2018-06-12T15:53:18.246Z,2056
2018-06-12T15:54:27.396Z,1804
2018-06-12T15:55:36.268Z,1944
2018-06-12T15:56:45.411Z,2192
2018-06-12T15:57:54.280Z,2220
2018-06-12T15:59:03.422Z,2364
2018-06-12T16:00:12.297Z,2568
2018-06-12T16:01:21.159Z,2804
2018-06-12T16:02:30.019Z,3052
2018-06-12T16:03:39.160Z,3444
2018-06-12T16:04:48.300Z,3764
2018-06-12T16:05:57.159Z,3724
2018-06-12T16:07:06.024Z,4140
2018-06-12T16:08:15.717Z,4272
2018-06-12T16:09:24.578Z,4384
2018-06-12T16:10:33.440Z,4372
2018-06-12T16:11:42.455Z,4376
2018-06-12T16:12:51.908Z,4712
2018-06-12T16:14:00.776Z,4992
2018-06-12T16:15:09.630Z,4568
2018-06-12T16:16:18.770Z,4968
2018-06-12T16:17:27.833Z,5692
2018-06-12T16:18:36.976Z,5604
2018-06-12T16:19:46.112Z,5128
2018-06-12T16:20:55.010Z,4472
2018-06-12T16:22:03.837Z,4332
2018-06-12T16:23:12.751Z,4216
2018-06-12T16:24:21.893Z,4732
2018-06-12T16:25:30.755Z,4804
2018-06-12T16:26:39.619Z,4516
2018-06-12T16:27:48.483Z,4040
2018-06-12T16:28:57.448Z,3720
2018-06-12T16:30:06.311Z,3364
2018-06-12T16:31:15.176Z,3216
2018-06-12T16:32:24.042Z,2936
2018-06-12T16:33:32.906Z,2808
2018-06-12T16:34:41.767Z,3172
2018-06-12T16:35:50.632Z,3324
2018-06-12T16:36:59.497Z,2880
2018-06-12T16:38:08.646Z,2700
2018-06-12T16:39:17.519Z,2808
2018-06-12T16:40:26.682Z,2252
2018-06-12T16:41:35.544Z,2464
2018-06-12T16:42:44.409Z,2180
2018-06-12T16:43:53.270Z,2104
2018-06-12T16:45:02.131Z,2336
2018-06-12T16:46:10.997Z,2620
2018-06-12T16:47:20.142Z,2560
2018-06-12T16:48:29.300Z,3012
2018-06-12T16:49:38.165Z,3784
2018-06-12T16:50:47.027Z,3692
2018-06-12T16:51:56.166Z,3592
2018-06-12T16:53:05.027Z,3260
2018-06-12T16:54:13.888Z,3136
2018-06-12T16:55:22.750Z,2792
2018-06-12T16:56:32.066Z,2496
2018-06-12T16:57:40.849Z,2172
2018-06-12T16:58:49.712Z,2164
2018-06-12T16:59:58.625Z,2724
2018-06-12T17:01:07.499Z,3656
2018-06-12T17:02:16.641Z,4028
2018-06-12T17:03:25.829Z,4296
2018-06-12T17:04:34.702Z,5224
2018-06-12T17:05:43.941Z,5572
2018-06-12T17:06:52.806Z,5380
2018-06-12T17:08:01.668Z,4208
2018-06-12T17:09:10.528Z,4660
2018-06-12T17:10:19.682Z,4824
2018-06-12T17:11:29.176Z,3564
2018-06-12T17:12:38.046Z,3396
2018-06-12T17:13:46.911Z,3648
2018-06-12T17:14:55.776Z,3780
2018-06-12T17:16:04.638Z,4208
2018-06-12T17:17:13.608Z,3948
2018-06-12T17:18:22.467Z,3728
2018-06-12T17:19:31.329Z,3168
2018-06-12T17:20:40.194Z,2732
2018-06-12T17:21:49.057Z,2604
2018-06-12T17:22:58.022Z,2660
2018-06-12T17:24:07.158Z,2956
2018-06-12T17:25:16.027Z,3004
2018-06-12T17:26:24.902Z,2532
2018-06-12T17:27:33.896Z,2692
2018-06-12T17:28:42.802Z,3504
2018-06-12T17:29:51.681Z,4084
2018-06-12T17:31:00.554Z,4656
2018-06-12T17:32:09.428Z,4308
2018-06-12T17:33:18.579Z,4020
2018-06-12T17:34:27.473Z,4848
2018-06-12T17:35:36.349Z,4424
2018-06-12T17:36:45.225Z,3772
2018-06-12T17:37:54.098Z,3100
2018-06-12T17:39:02.972Z,2324
2018-06-12T17:40:11.952Z,2024
2018-06-12T17:41:20.824Z,1784
2018-06-12T17:42:29.694Z,1580
2018-06-12T17:43:38.565Z,1740
2018-06-12T17:44:47.712Z,1700
2018-06-12T17:45:56.779Z,1556
2018-06-12T17:47:05.670Z,1460
2018-06-12T17:48:14.821Z,1356
2018-06-12T17:49:23.696Z,1508
2018-06-12T17:50:32.560Z,1768
2018-06-12T17:51:41.797Z,1492
2018-06-12T17:52:50.662Z,1264
2018-06-12T17:53:59.522Z,1420
2018-06-12T17:55:09.230Z,1192
2018-06-12T17:56:18.051Z,1288
2018-06-12T17:57:27.194Z,1196
2018-06-12T17:58:36.053Z,1248
2018-06-12T17:59:45.197Z,1020
2018-06-12T18:00:54.059Z,868
2018-06-12T18:02:02.924Z,688
2018-06-12T18:03:12.602Z,744
2018-06-12T18:04:21.825Z,1016
2018-06-12T18:05:31.519Z,1084
2018-06-12T18:06:40.384Z,1072
2018-06-12T18:07:49.249Z,1152
2018-06-12T18:08:58.109Z,1132
2018-06-12T18:10:06.974Z,1164
2018-06-12T18:11:15.841Z,1284
2018-06-12T18:12:24.705Z,1344
2018-06-12T18:13:33.565Z,1076
2018-06-12T18:14:42.488Z,764
2018-06-12T18:15:51.626Z,752
2018-06-12T18:17:00.489Z,628
2018-06-12T18:18:09.350Z,464
2018-06-12T18:19:18.271Z,464
2018-06-12T18:20:27.444Z,452
2018-06-12T18:21:36.305Z,424
2018-06-12T18:22:45.443Z,412
2018-06-12T18:23:54.303Z,452
2018-06-12T18:25:03.239Z,588
2018-06-12T18:26:12.030Z,628
2018-06-12T18:27:20.891Z,556
2018-06-12T18:28:30.031Z,452
2018-06-12T18:29:38.898Z,400
2018-06-12T18:30:47.758Z,480
2018-06-12T18:31:56.720Z,452
2018-06-12T18:33:05.582Z,464
2018-06-12T18:34:14.451Z,556
2018-06-12T18:35:23.311Z,516
2018-06-12T18:36:32.181Z,436
2018-06-12T18:37:41.044Z,392
2018-06-12T18:38:49.911Z,460
2018-06-12T18:39:58.770Z,480
2018-06-12T18:41:08.187Z,456
2018-06-12T18:42:17.047Z,388
2018-06-12T18:43:25.912Z,408
2018-06-12T18:44:34.776Z,456
2018-06-12T18:45:43.637Z,528
2018-06-12T18:46:52.498Z,600
2018-06-12T18:48:01.362Z,684